sensor_id;sensor_type;location;lat;lon;timestamp;P1;durP1;ratioP1;P2;durP2;ratioP2
57057;SDS011;55017;52.848;6.748;2023-04-27T00:02:01;134.38;;;129.57;;
57057;SDS011;55017;52.848;6.748;2023-04-27T00:04:27;132.90;;;128.30;;
57057;SDS011;55017;52.848;6.748;2023-04-27T00:06:53;126.30;;;122.10;;
57057;SDS011;55017;52.848;6.748;2023-04-27T00:09:18;131.02;;;126.50;;
57057;SDS011;55017;52.848;6.748;2023-04-27T00:11:44;132.80;;;128.03;;
57057;SDS011;55017;52.848;6.748;2023-04-27T00:14:09;133.50;;;128.80;;
57057;SDS011;55017;52.848;6.748;2023-04-27T00:16:35;133.65;;;128.75;;
57057;SDS011;55017;52.848;6.748;2023-04-27T00:19:01;133.45;;;128.95;;
57057;SDS011;55017;52.848;6.748;2023-04-27T00:21:26;133.43;;;128.93;;
57057;SDS011;55017;52.848;6.748;2023-04-27T00:23:52;136.57;;;131.73;;
57057;SDS011;55017;52.848;6.748;2023-04-27T00:26:18;136.77;;;132.18;;
57057;SDS011;55017;52.848;6.748;2023-04-27T00:28:45;133.65;;;128.95;;
57057;SDS011;55017;52.848;6.748;2023-04-27T00:31:11;132.05;;;127.50;;
57057;SDS011;55017;52.848;6.748;2023-04-27T00:33:36;135.27;;;130.50;;
57057;SDS011;55017;52.848;6.748;2023-04-27T00:36:02;132.50;;;127.75;;
57057;SDS011;55017;52.848;6.748;2023-04-27T00:38:28;137.43;;;132.73;;
57057;SDS011;55017;52.848;6.748;2023-04-27T00:41:01;136.00;;;131.40;;
57057;SDS011;55017;52.848;6.748;2023-04-27T00:43:30;134.93;;;130.43;;
57057;SDS011;55017;52.848;6.748;2023-04-27T00:45:56;134.05;;;129.07;;
57057;SDS011;55017;52.848;6.748;2023-04-27T00:48:23;136.70;;;132.00;;
57057;SDS011;55017;52.848;6.748;2023-04-27T00:50:49;135.20;;;130.50;;
57057;SDS011;55017;52.848;6.748;2023-04-27T00:53:14;133.35;;;128.85;;
57057;SDS011;55017;52.848;6.748;2023-04-27T00:55:41;134.88;;;129.90;;
57057;SDS011;55017;52.848;6.748;2023-04-27T00:58:07;138.90;;;134.10;;
57057;SDS011;55017;52.848;6.748;2023-04-27T01:00:34;134.52;;;129.75;;
57057;SDS011;55017;52.848;6.748;2023-04-27T01:03:00;136.98;;;132.38;;
57057;SDS011;55017;52.848;6.748;2023-04-27T01:05:26;136.00;;;131.30;;
57057;SDS011;55017;52.848;6.748;2023-04-27T01:07:52;135.63;;;130.98;;
57057;SDS011;55017;52.848;6.748;2023-04-27T01:10:19;137.88;;;133.07;;
57057;SDS011;55017;52.848;6.748;2023-04-27T01:12:45;136.95;;;132.05;;
57057;SDS011;55017;52.848;6.748;2023-04-27T01:15:10;135.50;;;130.70;;
57057;SDS011;55017;52.848;6.748;2023-04-27T01:17:36;136.90;;;132.00;;
57057;SDS011;55017;52.848;6.748;2023-04-27T01:20:01;136.85;;;132.18;;
57057;SDS011;55017;52.848;6.748;2023-04-27T01:22:30;137.30;;;132.63;;
57057;SDS011;55017;52.848;6.748;2023-04-27T01:24:56;136.27;;;131.60;;
57057;SDS011;55017;52.848;6.748;2023-04-27T01:27:22;138.60;;;133.80;;
57057;SDS011;55017;52.848;6.748;2023-04-27T01:29:47;138.63;;;133.88;;
57057;SDS011;55017;52.848;6.748;2023-04-27T01:32:13;138.43;;;133.43;;
57057;SDS011;55017;52.848;6.748;2023-04-27T01:34:38;138.30;;;133.45;;
57057;SDS011;55017;52.848;6.748;2023-04-27T01:37:04;138.93;;;134.13;;
57057;SDS011;55017;52.848;6.748;2023-04-27T01:39:30;139.70;;;134.80;;
57057;SDS011;55017;52.848;6.748;2023-04-27T01:41:55;139.48;;;134.45;;
57057;SDS011;55017;52.848;6.748;2023-04-27T01:44:21;138.60;;;133.60;;
57057;SDS011;55017;52.848;6.748;2023-04-27T01:46:48;138.77;;;133.65;;
57057;SDS011;55017;52.848;6.748;2023-04-27T01:49:13;137.30;;;132.43;;
57057;SDS011;55017;52.848;6.748;2023-04-27T01:51:39;141.38;;;136.00;;
57057;SDS011;55017;52.848;6.748;2023-04-27T01:54:05;138.82;;;134.02;;
57057;SDS011;55017;52.848;6.748;2023-04-27T01:56:30;136.80;;;131.55;;
57057;SDS011;55017;52.848;6.748;2023-04-27T01:58:56;141.05;;;136.15;;
57057;SDS011;55017;52.848;6.748;2023-04-27T02:01:22;138.85;;;134.07;;
57057;SDS011;55017;52.848;6.748;2023-04-27T02:03:48;140.98;;;136.07;;
57057;SDS011;55017;52.848;6.748;2023-04-27T02:06:13;136.52;;;131.88;;
57057;SDS011;55017;52.848;6.748;2023-04-27T02:08:39;139.15;;;134.35;;
57057;SDS011;55017;52.848;6.748;2023-04-27T02:11:05;140.85;;;135.82;;
57057;SDS011;55017;52.848;6.748;2023-04-27T02:13:30;138.17;;;133.23;;
57057;SDS011;55017;52.848;6.748;2023-04-27T02:15:56;138.40;;;133.43;;
57057;SDS011;55017;52.848;6.748;2023-04-27T02:18:21;140.07;;;135.10;;
57057;SDS011;55017;52.848;6.748;2023-04-27T02:20:48;137.15;;;131.90;;
57057;SDS011;55017;52.848;6.748;2023-04-27T02:23:13;140.05;;;135.20;;
57057;SDS011;55017;52.848;6.748;2023-04-27T02:25:39;140.48;;;135.75;;
57057;SDS011;55017;52.848;6.748;2023-04-27T02:28:10;140.52;;;135.50;;
57057;SDS011;55017;52.848;6.748;2023-04-27T02:30:36;140.82;;;135.65;;
57057;SDS011;55017;52.848;6.748;2023-04-27T02:33:01;140.82;;;135.80;;
57057;SDS011;55017;52.848;6.748;2023-04-27T02:35:27;139.70;;;134.50;;
57057;SDS011;55017;52.848;6.748;2023-04-27T02:37:52;140.85;;;135.65;;
57057;SDS011;55017;52.848;6.748;2023-04-27T02:40:18;140.80;;;135.52;;
57057;SDS011;55017;52.848;6.748;2023-04-27T02:42:43;137.23;;;132.50;;
57057;SDS011;55017;52.848;6.748;2023-04-27T02:45:09;139.57;;;134.57;;
57057;SDS011;55017;52.848;6.748;2023-04-27T02:47:35;139.80;;;134.68;;
57057;SDS011;55017;52.848;6.748;2023-04-27T02:50:01;139.73;;;134.75;;
57057;SDS011;55017;52.848;6.748;2023-04-27T02:52:27;139.82;;;134.82;;
57057;SDS011;55017;52.848;6.748;2023-04-27T02:54:52;140.10;;;135.27;;
57057;SDS011;55017;52.848;6.748;2023-04-27T02:57:18;140.05;;;134.90;;
57057;SDS011;55017;52.848;6.748;2023-04-27T02:59:43;139.73;;;134.88;;
57057;SDS011;55017;52.848;6.748;2023-04-27T03:02:09;139.35;;;134.30;;
57057;SDS011;55017;52.848;6.748;2023-04-27T03:04:35;142.25;;;137.32;;
57057;SDS011;55017;52.848;6.748;2023-04-27T03:07:02;139.95;;;135.07;;
57057;SDS011;55017;52.848;6.748;2023-04-27T03:09:28;139.77;;;134.55;;
57057;SDS011;55017;52.848;6.748;2023-04-27T03:11:53;140.07;;;135.18;;
57057;SDS011;55017;52.848;6.748;2023-04-27T03:14:19;141.45;;;136.38;;
57057;SDS011;55017;52.848;6.748;2023-04-27T03:16:45;141.10;;;136.02;;
57057;SDS011;55017;52.848;6.748;2023-04-27T03:19:10;142.48;;;137.38;;
57057;SDS011;55017;52.848;6.748;2023-04-27T03:21:36;142.70;;;137.70;;
57057;SDS011;55017;52.848;6.748;2023-04-27T03:24:02;140.77;;;135.73;;
57057;SDS011;55017;52.848;6.748;2023-04-27T03:26:28;143.13;;;137.93;;
57057;SDS011;55017;52.848;6.748;2023-04-27T03:28:54;142.88;;;137.73;;
57057;SDS011;55017;52.848;6.748;2023-04-27T03:31:19;143.35;;;138.25;;
57057;SDS011;55017;52.848;6.748;2023-04-27T03:33:45;139.75;;;134.70;;
57057;SDS011;55017;52.848;6.748;2023-04-27T03:36:11;143.52;;;138.23;;
57057;SDS011;55017;52.848;6.748;2023-04-27T03:38:36;141.07;;;135.88;;
57057;SDS011;55017;52.848;6.748;2023-04-27T03:41:02;145.27;;;139.82;;
57057;SDS011;55017;52.848;6.748;2023-04-27T03:43:28;141.90;;;136.90;;
57057;SDS011;55017;52.848;6.748;2023-04-27T03:45:53;143.73;;;138.52;;
57057;SDS011;55017;52.848;6.748;2023-04-27T03:48:19;142.32;;;137.10;;
57057;SDS011;55017;52.848;6.748;2023-04-27T03:50:45;142.73;;;137.45;;
57057;SDS011;55017;52.848;6.748;2023-04-27T03:53:11;142.07;;;136.90;;
57057;SDS011;55017;52.848;6.748;2023-04-27T03:55:38;142.18;;;137.10;;
57057;SDS011;55017;52.848;6.748;2023-04-27T03:58:04;142.35;;;137.25;;
57057;SDS011;55017;52.848;6.748;2023-04-27T04:00:30;140.55;;;135.60;;
57057;SDS011;55017;52.848;6.748;2023-04-27T04:02:56;140.07;;;134.98;;
57057;SDS011;55017;52.848;6.748;2023-04-27T04:05:21;142.57;;;137.55;;
57057;SDS011;55017;52.848;6.748;2023-04-27T04:07:47;143.93;;;138.57;;
57057;SDS011;55017;52.848;6.748;2023-04-27T04:10:13;143.07;;;137.80;;
57057;SDS011;55017;52.848;6.748;2023-04-27T04:12:38;143.93;;;138.65;;
57057;SDS011;55017;52.848;6.748;2023-04-27T04:15:04;143.10;;;138.00;;
57057;SDS011;55017;52.848;6.748;2023-04-27T04:17:31;145.35;;;139.90;;
57057;SDS011;55017;52.848;6.748;2023-04-27T04:19:58;144.38;;;138.95;;
57057;SDS011;55017;52.848;6.748;2023-04-27T04:22:24;142.27;;;137.10;;
57057;SDS011;55017;52.848;6.748;2023-04-27T04:24:50;141.73;;;136.50;;
57057;SDS011;55017;52.848;6.748;2023-04-27T04:27:15;143.02;;;137.77;;
57057;SDS011;55017;52.848;6.748;2023-04-27T04:29:41;141.13;;;135.98;;
57057;SDS011;55017;52.848;6.748;2023-04-27T04:32:07;142.38;;;137.38;;
57057;SDS011;55017;52.848;6.748;2023-04-27T04:34:33;142.30;;;137.20;;
57057;SDS011;55017;52.848;6.748;2023-04-27T04:37:01;142.45;;;137.02;;
57057;SDS011;55017;52.848;6.748;2023-04-27T04:39:31;141.20;;;136.02;;
57057;SDS011;55017;52.848;6.748;2023-04-27T04:41:57;142.82;;;137.77;;
57057;SDS011;55017;52.848;6.748;2023-04-27T04:44:23;144.05;;;138.95;;
57057;SDS011;55017;52.848;6.748;2023-04-27T04:46:49;141.43;;;136.43;;
57057;SDS011;55017;52.848;6.748;2023-04-27T04:49:15;142.60;;;137.52;;
57057;SDS011;55017;52.848;6.748;2023-04-27T04:51:41;143.15;;;138.05;;
57057;SDS011;55017;52.848;6.748;2023-04-27T04:54:07;141.75;;;136.63;;
57057;SDS011;55017;52.848;6.748;2023-04-27T04:56:33;142.90;;;137.95;;
57057;SDS011;55017;52.848;6.748;2023-04-27T04:58:59;144.07;;;138.80;;
57057;SDS011;55017;52.848;6.748;2023-04-27T05:01:25;143.02;;;137.88;;
57057;SDS011;55017;52.848;6.748;2023-04-27T05:03:51;144.68;;;139.40;;
57057;SDS011;55017;52.848;6.748;2023-04-27T05:06:16;143.15;;;137.88;;
57057;SDS011;55017;52.848;6.748;2023-04-27T05:08:42;145.02;;;139.82;;
57057;SDS011;55017;52.848;6.748;2023-04-27T05:11:08;143.85;;;138.45;;
57057;SDS011;55017;52.848;6.748;2023-04-27T05:13:33;143.45;;;138.45;;
57057;SDS011;55017;52.848;6.748;2023-04-27T05:16:02;143.75;;;138.52;;
57057;SDS011;55017;52.848;6.748;2023-04-27T05:18:29;143.38;;;137.95;;
57057;SDS011;55017;52.848;6.748;2023-04-27T05:20:54;143.55;;;138.27;;
57057;SDS011;55017;52.848;6.748;2023-04-27T05:23:20;144.63;;;139.38;;
57057;SDS011;55017;52.848;6.748;2023-04-27T05:25:46;146.18;;;140.43;;
57057;SDS011;55017;52.848;6.748;2023-04-27T05:28:11;144.32;;;139.18;;
57057;SDS011;55017;52.848;6.748;2023-04-27T05:30:37;145.10;;;139.75;;
57057;SDS011;55017;52.848;6.748;2023-04-27T05:33:02;145.15;;;139.88;;
57057;SDS011;55017;52.848;6.748;2023-04-27T05:35:31;142.93;;;137.57;;
57057;SDS011;55017;52.848;6.748;2023-04-27T05:40:23;143.55;;;138.43;;
57057;SDS011;55017;52.848;6.748;2023-04-27T05:42:49;144.27;;;138.98;;
57057;SDS011;55017;52.848;6.748;2023-04-27T05:45:14;141.23;;;135.82;;
57057;SDS011;55017;52.848;6.748;2023-04-27T05:47:40;142.75;;;137.30;;
57057;SDS011;55017;52.848;6.748;2023-04-27T05:50:06;142.40;;;137.23;;
57057;SDS011;55017;52.848;6.748;2023-04-27T05:52:32;143.60;;;138.13;;
57057;SDS011;55017;52.848;6.748;2023-04-27T05:54:58;144.20;;;138.90;;
57057;SDS011;55017;52.848;6.748;2023-04-27T05:57:24;141.57;;;136.43;;
57057;SDS011;55017;52.848;6.748;2023-04-27T05:59:50;145.20;;;139.87;;
57057;SDS011;55017;52.848;6.748;2023-04-27T06:02:17;142.95;;;137.65;;
57057;SDS011;55017;52.848;6.748;2023-04-27T06:04:43;143.90;;;138.60;;
57057;SDS011;55017;52.848;6.748;2023-04-27T06:07:11;141.00;;;135.82;;
57057;SDS011;55017;52.848;6.748;2023-04-27T06:09:37;145.10;;;139.80;;
57057;SDS011;55017;52.848;6.748;2023-04-27T06:12:05;144.50;;;139.30;;
57057;SDS011;55017;52.848;6.748;2023-04-27T06:14:33;144.23;;;138.88;;
57057;SDS011;55017;52.848;6.748;2023-04-27T06:16:59;142.23;;;136.77;;
57057;SDS011;55017;52.848;6.748;2023-04-27T06:19:25;143.13;;;137.93;;
57057;SDS011;55017;52.848;6.748;2023-04-27T06:21:52;141.45;;;136.40;;
57057;SDS011;55017;52.848;6.748;2023-04-27T06:24:18;141.60;;;136.35;;
57057;SDS011;55017;52.848;6.748;2023-04-27T06:26:44;142.82;;;137.63;;
57057;SDS011;55017;52.848;6.748;2023-04-27T06:29:10;141.77;;;136.67;;
57057;SDS011;55017;52.848;6.748;2023-04-27T06:31:35;140.35;;;135.35;;
57057;SDS011;55017;52.848;6.748;2023-04-27T06:34:01;140.18;;;135.00;;
57057;SDS011;55017;52.848;6.748;2023-04-27T06:36:27;139.20;;;134.13;;
57057;SDS011;55017;52.848;6.748;2023-04-27T06:38:53;140.60;;;135.70;;
57057;SDS011;55017;52.848;6.748;2023-04-27T06:41:23;140.60;;;135.63;;
57057;SDS011;55017;52.848;6.748;2023-04-27T06:43:50;137.20;;;132.40;;
57057;SDS011;55017;52.848;6.748;2023-04-27T06:46:15;139.52;;;134.65;;
57057;SDS011;55017;52.848;6.748;2023-04-27T06:48:41;139.20;;;134.30;;
57057;SDS011;55017;52.848;6.748;2023-04-27T06:51:07;137.30;;;132.20;;
57057;SDS011;55017;52.848;6.748;2023-04-27T06:53:32;134.60;;;129.60;;
57057;SDS011;55017;52.848;6.748;2023-04-27T06:55:58;137.10;;;132.50;;
57057;SDS011;55017;52.848;6.748;2023-04-27T06:58:23;137.65;;;132.73;;
57057;SDS011;55017;52.848;6.748;2023-04-27T07:00:51;136.65;;;131.95;;
57057;SDS011;55017;52.848;6.748;2023-04-27T07:03:16;135.40;;;130.70;;
57057;SDS011;55017;52.848;6.748;2023-04-27T07:05:42;130.10;;;125.50;;
57057;SDS011;55017;52.848;6.748;2023-04-27T07:08:08;135.97;;;131.17;;
57057;SDS011;55017;52.848;6.748;2023-04-27T07:10:34;129.85;;;125.40;;
57057;SDS011;55017;52.848;6.748;2023-04-27T07:12:59;135.90;;;131.30;;
57057;SDS011;55017;52.848;6.748;2023-04-27T07:15:25;137.40;;;132.70;;
57057;SDS011;55017;52.848;6.748;2023-04-27T07:17:51;132.40;;;127.70;;
57057;SDS011;55017;52.848;6.748;2023-04-27T07:20:20;136.00;;;131.30;;
57057;SDS011;55017;52.848;6.748;2023-04-27T07:22:45;135.67;;;131.10;;
57057;SDS011;55017;52.848;6.748;2023-04-27T07:25:11;131.95;;;127.45;;
57057;SDS011;55017;52.848;6.748;2023-04-27T07:27:37;134.90;;;130.40;;
57057;SDS011;55017;52.848;6.748;2023-04-27T07:30:04;134.10;;;129.70;;
57057;SDS011;55017;52.848;6.748;2023-04-27T07:32:32;130.90;;;126.30;;
57057;SDS011;55017;52.848;6.748;2023-04-27T07:34:58;136.05;;;131.60;;
57057;SDS011;55017;52.848;6.748;2023-04-27T07:37:23;130.70;;;126.30;;
57057;SDS011;55017;52.848;6.748;2023-04-27T07:39:49;135.70;;;131.10;;
57057;SDS011;55017;52.848;6.748;2023-04-27T07:42:18;127.70;;;123.50;;
57057;SDS011;55017;52.848;6.748;2023-04-27T07:44:46;131.10;;;126.70;;
57057;SDS011;55017;52.848;6.748;2023-04-27T07:47:14;128.10;;;123.80;;
57057;SDS011;55017;52.848;6.748;2023-04-27T07:49:40;131.80;;;127.20;;
57057;SDS011;55017;52.848;6.748;2023-04-27T07:52:05;132.55;;;127.75;;
57057;SDS011;55017;52.848;6.748;2023-04-27T07:54:31;132.50;;;128.15;;
57057;SDS011;55017;52.848;6.748;2023-04-27T07:56:57;131.90;;;127.40;;
57057;SDS011;55017;52.848;6.748;2023-04-27T07:59:22;130.05;;;125.85;;
57057;SDS011;55017;52.848;6.748;2023-04-27T08:01:48;132.30;;;127.90;;
57057;SDS011;55017;52.848;6.748;2023-04-27T08:04:13;129.50;;;125.15;;
57057;SDS011;55017;52.848;6.748;2023-04-27T08:06:39;132.70;;;128.30;;
57057;SDS011;55017;52.848;6.748;2023-04-27T08:09:05;133.30;;;128.70;;
57057;SDS011;55017;52.848;6.748;2023-04-27T08:11:31;129.45;;;125.15;;
57057;SDS011;55017;52.848;6.748;2023-04-27T08:13:57;132.25;;;127.65;;
57057;SDS011;55017;52.848;6.748;2023-04-27T08:16:23;127.90;;;123.40;;
57057;SDS011;55017;52.848;6.748;2023-04-27T08:18:48;127.00;;;122.90;;
57057;SDS011;55017;52.848;6.748;2023-04-27T08:21:14;129.90;;;125.60;;
57057;SDS011;55017;52.848;6.748;2023-04-27T08:23:40;130.00;;;125.70;;
57057;SDS011;55017;52.848;6.748;2023-04-27T08:26:06;130.60;;;126.40;;
57057;SDS011;55017;52.848;6.748;2023-04-27T08:28:32;128.00;;;123.80;;
57057;SDS011;55017;52.848;6.748;2023-04-27T08:30:57;129.85;;;125.65;;
57057;SDS011;55017;52.848;6.748;2023-04-27T08:33:23;123.90;;;119.75;;
57057;SDS011;55017;52.848;6.748;2023-04-27T08:35:49;128.75;;;124.15;;
57057;SDS011;55017;52.848;6.748;2023-04-27T08:38:17;129.20;;;125.10;;
57057;SDS011;55017;52.848;6.748;2023-04-27T08:40:43;129.50;;;125.20;;
57057;SDS011;55017;52.848;6.748;2023-04-27T08:43:09;129.60;;;125.30;;
57057;SDS011;55017;52.848;6.748;2023-04-27T08:45:35;131.10;;;126.67;;
57057;SDS011;55017;52.848;6.748;2023-04-27T08:48:01;126.90;;;122.70;;
57057;SDS011;55017;52.848;6.748;2023-04-27T08:50:27;126.50;;;122.35;;
57057;SDS011;55017;52.848;6.748;2023-04-27T08:52:53;134.20;;;129.70;;
57057;SDS011;55017;52.848;6.748;2023-04-27T08:57:52;129.95;;;125.35;;
57057;SDS011;55017;52.848;6.748;2023-04-27T09:00:19;128.13;;;123.82;;
57057;SDS011;55017;52.848;6.748;2023-04-27T09:02:45;128.25;;;124.15;;
57057;SDS011;55017;52.848;6.748;2023-04-27T09:05:18;127.80;;;123.70;;
57057;SDS011;55017;52.848;6.748;2023-04-27T09:07:55;134.35;;;129.65;;
57057;SDS011;55017;52.848;6.748;2023-04-27T09:10:21;129.87;;;125.37;;
57057;SDS011;55017;52.848;6.748;2023-04-27T09:12:54;131.75;;;127.28;;
57057;SDS011;55017;52.848;6.748;2023-04-27T09:15:21;129.10;;;124.80;;
57057;SDS011;55017;52.848;6.748;2023-04-27T09:17:51;125.50;;;121.30;;
57057;SDS011;55017;52.848;6.748;2023-04-27T09:20:18;135.10;;;130.35;;
57057;SDS011;55017;52.848;6.748;2023-04-27T09:22:47;131.30;;;126.90;;
57057;SDS011;55017;52.848;6.748;2023-04-27T09:25:25;125.20;;;121.00;;
57057;SDS011;55017;52.848;6.748;2023-04-27T09:27:55;130.93;;;126.53;;
57057;SDS011;55017;52.848;6.748;2023-04-27T09:30:22;126.40;;;122.10;;
57057;SDS011;55017;52.848;6.748;2023-04-27T09:32:51;131.35;;;127.05;;
57057;SDS011;55017;52.848;6.748;2023-04-27T09:35:28;129.20;;;124.35;;
57057;SDS011;55017;52.848;6.748;2023-04-27T09:37:57;126.90;;;122.50;;
57057;SDS011;55017;52.848;6.748;2023-04-27T09:40:25;131.57;;;127.18;;
57057;SDS011;55017;52.848;6.748;2023-04-27T09:42:54;124.20;;;119.90;;
57057;SDS011;55017;52.848;6.748;2023-04-27T09:45:21;124.88;;;120.78;;
57057;SDS011;55017;52.848;6.748;2023-04-27T09:47:48;131.90;;;127.55;;
57057;SDS011;55017;52.848;6.748;2023-04-27T09:50:13;129.70;;;125.35;;
57057;SDS011;55017;52.848;6.748;2023-04-27T09:52:39;124.40;;;120.20;;
57057;SDS011;55017;52.848;6.748;2023-04-27T09:55:07;127.72;;;123.43;;
57057;SDS011;55017;52.848;6.748;2023-04-27T09:57:36;127.40;;;123.10;;
57057;SDS011;55017;52.848;6.748;2023-04-27T10:00:26;125.00;;;120.70;;
57057;SDS011;55017;52.848;6.748;2023-04-27T10:03:18;123.38;;;119.35;;
57057;SDS011;55017;52.848;6.748;2023-04-27T10:09:06;126.55;;;122.35;;
57057;SDS011;55017;52.848;6.748;2023-04-27T10:11:42;124.00;;;119.70;;
57057;SDS011;55017;52.848;6.748;2023-04-27T10:14:09;123.40;;;119.20;;
57057;SDS011;55017;52.848;6.748;2023-04-27T10:16:43;126.60;;;122.30;;
57057;SDS011;55017;52.848;6.748;2023-04-27T10:19:12;124.03;;;119.63;;
57057;SDS011;55017;52.848;6.748;2023-04-27T10:21:51;128.43;;;123.93;;
57057;SDS011;55017;52.848;6.748;2023-04-27T10:27:05;124.65;;;120.50;;
57057;SDS011;55017;52.848;6.748;2023-04-27T10:29:42;125.25;;;121.10;;
57057;SDS011;55017;52.848;6.748;2023-04-27T10:32:18;128.30;;;123.90;;
57057;SDS011;55017;52.848;6.748;2023-04-27T10:34:45;127.05;;;122.65;;
57057;SDS011;55017;52.848;6.748;2023-04-27T10:37:13;131.07;;;126.57;;
57057;SDS011;55017;52.848;6.748;2023-04-27T10:39:40;129.80;;;125.30;;
57057;SDS011;55017;52.848;6.748;2023-04-27T10:42:07;126.70;;;122.40;;
57057;SDS011;55017;52.848;6.748;2023-04-27T10:44:34;129.05;;;124.45;;
57057;SDS011;55017;52.848;6.748;2023-04-27T10:47:14;127.40;;;123.10;;
57057;SDS011;55017;52.848;6.748;2023-04-27T10:49:41;123.53;;;119.25;;
57057;SDS011;55017;52.848;6.748;2023-04-27T10:52:07;127.57;;;123.00;;
57057;SDS011;55017;52.848;6.748;2023-04-27T10:54:33;124.70;;;120.40;;
57057;SDS011;55017;52.848;6.748;2023-04-27T10:57:06;129.33;;;124.83;;
57057;SDS011;55017;52.848;6.748;2023-04-27T10:59:33;129.85;;;125.30;;
57057;SDS011;55017;52.848;6.748;2023-04-27T11:02:10;125.15;;;120.68;;
57057;SDS011;55017;52.848;6.748;2023-04-27T11:04:36;124.90;;;120.68;;
57057;SDS011;55017;52.848;6.748;2023-04-27T11:07:07;124.20;;;119.70;;
57057;SDS011;55017;52.848;6.748;2023-04-27T11:09:34;124.95;;;120.65;;
57057;SDS011;55017;52.848;6.748;2023-04-27T11:12:01;127.13;;;122.73;;
57057;SDS011;55017;52.848;6.748;2023-04-27T11:14:30;124.95;;;120.60;;
57057;SDS011;55017;52.848;6.748;2023-04-27T11:16:56;125.43;;;121.07;;
57057;SDS011;55017;52.848;6.748;2023-04-27T11:19:22;126.40;;;122.00;;
57057;SDS011;55017;52.848;6.748;2023-04-27T11:21:47;124.73;;;120.37;;
57057;SDS011;55017;52.848;6.748;2023-04-27T11:24:13;127.13;;;122.77;;
57057;SDS011;55017;52.848;6.748;2023-04-27T11:26:39;129.00;;;124.40;;
57057;SDS011;55017;52.848;6.748;2023-04-27T11:29:06;125.60;;;121.30;;
57057;SDS011;55017;52.848;6.748;2023-04-27T11:31:41;125.25;;;120.85;;
57057;SDS011;55017;52.848;6.748;2023-04-27T11:34:14;124.07;;;119.85;;
57057;SDS011;55017;52.848;6.748;2023-04-27T11:36:41;127.50;;;123.25;;
57057;SDS011;55017;52.848;6.748;2023-04-27T11:39:07;129.50;;;125.10;;
57057;SDS011;55017;52.848;6.748;2023-04-27T11:41:40;124.20;;;120.00;;
57057;SDS011;55017;52.848;6.748;2023-04-27T11:44:10;123.30;;;119.10;;
57057;SDS011;55017;52.848;6.748;2023-04-27T11:46:36;123.75;;;119.25;;
57057;SDS011;55017;52.848;6.748;2023-04-27T11:49:03;122.80;;;118.45;;
57057;SDS011;55017;52.848;6.748;2023-04-27T11:51:30;126.57;;;122.37;;
57057;SDS011;55017;52.848;6.748;2023-04-27T11:54:02;128.00;;;123.60;;
57057;SDS011;55017;52.848;6.748;2023-04-27T11:56:36;128.90;;;124.50;;
57057;SDS011;55017;52.848;6.748;2023-04-27T11:59:03;120.87;;;116.67;;
57057;SDS011;55017;52.848;6.748;2023-04-27T12:01:32;125.15;;;120.80;;
57057;SDS011;55017;52.848;6.748;2023-04-27T12:03:59;126.30;;;122.03;;
57057;SDS011;55017;52.848;6.748;2023-04-27T12:06:26;127.55;;;123.25;;
57057;SDS011;55017;52.848;6.748;2023-04-27T12:08:56;124.17;;;119.67;;
57057;SDS011;55017;52.848;6.748;2023-04-27T12:11:25;123.25;;;118.95;;
57057;SDS011;55017;52.848;6.748;2023-04-27T12:13:52;122.50;;;118.30;;
57057;SDS011;55017;52.848;6.748;2023-04-27T12:16:18;125.37;;;121.00;;
57057;SDS011;55017;52.848;6.748;2023-04-27T12:18:46;124.30;;;120.00;;
57057;SDS011;55017;52.848;6.748;2023-04-27T12:21:12;124.10;;;119.90;;
57057;SDS011;55017;52.848;6.748;2023-04-27T12:23:38;119.95;;;115.75;;
57057;SDS011;55017;52.848;6.748;2023-04-27T12:26:03;123.82;;;119.65;;
57057;SDS011;55017;52.848;6.748;2023-04-27T12:28:29;120.53;;;116.33;;
57057;SDS011;55017;52.848;6.748;2023-04-27T12:30:55;121.53;;;117.32;;
57057;SDS011;55017;52.848;6.748;2023-04-27T12:33:21;123.55;;;119.32;;
57057;SDS011;55017;52.848;6.748;2023-04-27T12:35:47;118.47;;;114.43;;
57057;SDS011;55017;52.848;6.748;2023-04-27T12:38:12;122.72;;;118.38;;
57057;SDS011;55017;52.848;6.748;2023-04-27T12:40:38;124.03;;;119.77;;
57057;SDS011;55017;52.848;6.748;2023-04-27T12:43:03;121.75;;;117.65;;
57057;SDS011;55017;52.848;6.748;2023-04-27T12:45:31;124.50;;;120.40;;
57057;SDS011;55017;52.848;6.748;2023-04-27T12:47:57;120.00;;;116.00;;
57057;SDS011;55017;52.848;6.748;2023-04-27T12:50:23;119.63;;;115.47;;
57057;SDS011;55017;52.848;6.748;2023-04-27T12:52:48;123.95;;;119.85;;
57057;SDS011;55017;52.848;6.748;2023-04-27T12:55:14;125.90;;;121.55;;
57057;SDS011;55017;52.848;6.748;2023-04-27T12:57:40;121.07;;;116.97;;
57057;SDS011;55017;52.848;6.748;2023-04-27T13:00:05;125.40;;;121.10;;
57057;SDS011;55017;52.848;6.748;2023-04-27T13:02:34;119.10;;;115.00;;
57057;SDS011;55017;52.848;6.748;2023-04-27T13:05:00;120.10;;;116.00;;
57057;SDS011;55017;52.848;6.748;2023-04-27T13:07:26;122.53;;;118.53;;
57057;SDS011;55017;52.848;6.748;2023-04-27T13:09:53;120.20;;;116.30;;
57057;SDS011;55017;52.848;6.748;2023-04-27T13:12:18;123.35;;;119.15;;
57057;SDS011;55017;52.848;6.748;2023-04-27T13:14:44;121.37;;;117.27;;
57057;SDS011;55017;52.848;6.748;2023-04-27T13:17:10;120.53;;;116.57;;
57057;SDS011;55017;52.848;6.748;2023-04-27T13:19:36;121.38;;;117.30;;
57057;SDS011;55017;52.848;6.748;2023-04-27T13:22:02;121.47;;;117.38;;
57057;SDS011;55017;52.848;6.748;2023-04-27T13:24:28;122.83;;;118.63;;
57057;SDS011;55017;52.848;6.748;2023-04-27T13:26:54;120.30;;;116.20;;
57057;SDS011;55017;52.848;6.748;2023-04-27T13:29:20;119.43;;;115.43;;
57057;SDS011;55017;52.848;6.748;2023-04-27T13:31:45;124.70;;;120.50;;
57057;SDS011;55017;52.848;6.748;2023-04-27T13:34:11;122.05;;;117.88;;
57057;SDS011;55017;52.848;6.748;2023-04-27T13:36:37;121.38;;;117.40;;
57057;SDS011;55017;52.848;6.748;2023-04-27T13:39:02;125.38;;;121.18;;
57057;SDS011;55017;52.848;6.748;2023-04-27T13:41:30;123.60;;;119.30;;
57057;SDS011;55017;52.848;6.748;2023-04-27T13:43:55;121.60;;;117.60;;
57057;SDS011;55017;52.848;6.748;2023-04-27T13:46:21;121.00;;;117.00;;
57057;SDS011;55017;52.848;6.748;2023-04-27T13:48:47;123.00;;;118.90;;
57057;SDS011;55017;52.848;6.748;2023-04-27T13:51:12;124.90;;;120.70;;
57057;SDS011;55017;52.848;6.748;2023-04-27T13:53:38;121.40;;;117.30;;
57057;SDS011;55017;52.848;6.748;2023-04-27T13:56:04;126.82;;;122.47;;
57057;SDS011;55017;52.848;6.748;2023-04-27T13:58:30;127.90;;;123.70;;
57057;SDS011;55017;52.848;6.748;2023-04-27T14:00:56;121.70;;;117.30;;
57057;SDS011;55017;52.848;6.748;2023-04-27T14:03:22;126.67;;;122.37;;
57057;SDS011;55017;52.848;6.748;2023-04-27T14:05:48;123.50;;;119.20;;